createdAt,value
2023-02-26T00:04:57.498Z,1.38
2023-02-26T00:10:02.661Z,1.60
2023-02-26T00:15:13.163Z,1.10
2023-02-26T00:20:20.709Z,1.75
2023-02-26T00:25:24.743Z,1.00
2023-02-26T00:30:29.772Z,1.08
2023-02-26T00:35:36.457Z,2.03
2023-02-26T00:40:44.891Z,1.38
2023-02-26T00:45:58.386Z,1.42
2023-02-26T00:51:11.578Z,1.30
2023-02-26T00:56:16.158Z,1.05
2023-02-26T01:01:20.299Z,1.33
2023-02-26T01:06:30.160Z,0.82
2023-02-26T01:11:37.562Z,0.98
2023-02-26T01:16:52.768Z,0.93
2023-02-26T01:22:06.277Z,1.10
2023-02-26T01:27:10.660Z,1.15
2023-02-26T01:32:23.132Z,0.80
2023-02-26T01:37:35.846Z,0.90
2023-02-26T01:42:45.489Z,1.17
2023-02-26T01:47:58.196Z,1.20
2023-02-26T01:53:24.297Z,0.73
2023-02-26T01:58:33.471Z,0.87
2023-02-26T02:03:41.427Z,0.82
2023-02-26T02:08:47.683Z,1.38
2023-02-26T02:14:09.285Z,0.50
2023-02-26T02:19:40.755Z,1.10
2023-02-26T02:25:12.637Z,0.90
2023-02-26T02:30:37.245Z,1.50
2023-02-26T02:35:51.660Z,0.77
2023-02-26T02:41:04.573Z,0.52
2023-02-26T02:46:13.264Z,0.85
2023-02-26T02:51:24.445Z,1.08
2023-02-26T02:56:35.503Z,0.60
2023-02-26T03:01:41.762Z,0.40
2023-02-26T03:06:50.071Z,0.40
2023-02-26T03:11:55.765Z,0.43
2023-02-26T03:17:17.257Z,1.05
2023-02-26T03:22:31.168Z,0.50
2023-02-26T03:27:45.666Z,0.17
2023-02-26T03:32:58.467Z,0.30
2023-02-26T03:38:09.054Z,0.50
2023-02-26T03:43:20.232Z,0.30
2023-02-26T03:48:28.830Z,0.47
2023-02-26T03:53:40.864Z,0.47
2023-02-26T03:58:53.510Z,0.60
2023-02-26T04:04:23.298Z,0.50
2023-02-26T04:09:29.265Z,0.70
2023-02-26T04:14:33.380Z,0.40
2023-02-26T04:19:37.533Z,0.40
2023-02-26T04:24:43.006Z,0.20
2023-02-26T04:29:48.027Z,0.37
2023-02-26T04:34:52.323Z,0.47
2023-02-26T04:39:58.201Z,0.52
2023-02-26T04:45:02.391Z,0.35
2023-02-26T04:50:09.016Z,0.60
2023-02-26T04:55:14.779Z,0.50
2023-02-26T05:00:20.235Z,0.20
2023-02-26T05:05:24.745Z,0.10
2023-02-26T05:10:30.188Z,0.70
2023-02-26T05:15:34.389Z,0.50
2023-02-26T05:20:39.042Z,0.20
2023-02-26T05:25:44.599Z,0.38
2023-02-26T05:30:48.701Z,0.52
2023-02-26T05:35:53.244Z,0.40
2023-02-26T05:41:00.111Z,0.20
2023-02-26T05:51:08.188Z,0.70
2023-02-26T05:56:13.535Z,0.30
2023-02-26T06:01:17.572Z,0.40
2023-02-26T06:06:22.057Z,0.30
2023-02-26T06:11:27.609Z,0.60
2023-02-26T06:16:32.874Z,0.40
2023-02-26T06:21:37.197Z,0.40
2023-02-26T06:26:42.584Z,0.20
2023-02-26T06:31:46.852Z,0.13
2023-02-26T06:36:50.882Z,0.30
2023-02-26T06:41:56.375Z,0.55
2023-02-26T06:47:00.419Z,0.40
2023-02-26T06:52:04.482Z,0.30
2023-02-26T06:57:09.946Z,0.20
2023-02-26T07:02:20.382Z,0.35
2023-02-26T07:07:24.409Z,0.43
2023-02-26T07:12:30.056Z,0.25
2023-02-26T07:17:34.478Z,0.68
2023-02-26T07:22:39.195Z,0.47
2023-02-26T07:27:44.657Z,0.22
2023-02-26T07:32:48.622Z,0.35
2023-02-26T07:37:53.196Z,0.30
2023-02-26T07:42:58.788Z,0.50
2023-02-26T07:48:02.930Z,0.45
2023-02-26T07:53:06.997Z,0.50
2023-02-26T07:58:12.392Z,0.60
2023-02-26T08:03:16.561Z,0.40
2023-02-26T08:08:20.678Z,0.28
2023-02-26T08:13:26.196Z,0.25
2023-02-26T08:18:30.380Z,0.20
2023-02-26T08:23:34.835Z,0.32
2023-02-26T08:28:40.651Z,0.13
2023-02-26T08:33:45.207Z,0.22
2023-02-26T08:38:49.317Z,0.55
2023-02-26T08:43:54.999Z,0.40
2023-02-26T08:48:59.169Z,2.42
2023-02-26T08:54:03.363Z,0.30
2023-02-26T08:59:10.113Z,0.50
2023-02-26T09:04:14.277Z,0.43
2023-02-26T09:09:19.336Z,0.30
2023-02-26T09:14:24.838Z,0.30
2023-02-26T09:19:29.068Z,0.52
2023-02-26T09:24:33.246Z,0.30
2023-02-26T09:29:38.890Z,0.40
2023-02-26T09:34:42.900Z,0.57
2023-02-26T09:39:47.908Z,0.32
2023-02-26T09:44:54.212Z,0.50
2023-02-26T09:50:06.231Z,0.37
2023-02-26T09:55:21.458Z,0.47
2023-02-26T10:00:35.783Z,0.50
2023-02-26T10:05:46.228Z,0.43
2023-02-26T10:10:55.191Z,0.30
2023-02-26T10:16:07.211Z,0.68
2023-02-26T10:21:16.792Z,0.30
2023-02-26T10:26:25.532Z,0.55
2023-02-26T10:31:37.508Z,0.40
2023-02-26T10:36:49.587Z,0.52
2023-02-26T10:41:54.718Z,0.60
2023-02-26T10:47:08.590Z,0.50
2023-02-26T10:52:17.090Z,0.50
2023-02-26T10:57:28.777Z,0.40
2023-02-26T11:02:40.797Z,0.32
2023-02-26T11:07:47.108Z,0.55
2023-02-26T11:12:51.094Z,0.43
2023-02-26T11:17:59.409Z,0.38
2023-02-26T11:23:06.398Z,0.40
2023-02-26T11:28:23.741Z,0.30
2023-02-26T11:33:37.982Z,0.40
2023-02-26T11:38:46.881Z,0.30
2023-02-26T11:44:00.683Z,0.52
2023-02-26T11:49:06.466Z,0.43
2023-02-26T11:54:24.080Z,0.47
2023-02-26T11:59:28.227Z,0.38
2023-02-26T12:04:33.791Z,0.30
2023-02-26T12:09:39.734Z,0.40
2023-02-26T12:15:05.134Z,0.50
2023-02-26T12:20:22.375Z,0.30
2023-02-26T12:26:12.583Z,0.50
2023-02-26T12:31:50.001Z,0.40
2023-02-26T12:37:16.911Z,0.40
2023-02-26T12:42:33.500Z,0.40
2023-02-26T12:53:16.417Z,0.65
2023-02-26T12:58:51.358Z,0.30
2023-02-26T13:04:22.133Z,0.60
2023-02-26T13:09:37.252Z,0.43
2023-02-26T13:14:53.522Z,0.55
2023-02-26T13:20:01.422Z,0.30
2023-02-26T13:25:18.387Z,0.30
2023-02-26T13:30:30.338Z,0.40
2023-02-26T13:35:38.371Z,0.25
2023-02-26T13:41:04.579Z,0.25
2023-02-26T13:46:28.031Z,0.30
2023-02-26T13:51:37.782Z,0.50
2023-02-26T13:56:55.587Z,0.40
2023-02-26T14:02:04.313Z,0.30
2023-02-26T14:07:14.970Z,0.20
2023-02-26T14:12:36.259Z,0.60
2023-02-26T14:17:41.930Z,0.20
2023-02-26T14:22:53.221Z,0.30
2023-02-26T14:28:35.394Z,0.32
2023-02-26T14:33:49.305Z,1.95
2023-02-26T14:38:54.676Z,0.20
2023-02-26T14:44:06.585Z,0.20
2023-02-26T14:49:19.894Z,0.30
2023-02-26T14:54:48.811Z,0.10
2023-02-26T15:00:12.776Z,0.20
2023-02-26T15:05:36.447Z,0.40
2023-02-26T15:10:58.822Z,0.73
2023-02-26T15:16:19.254Z,0.45
2023-02-26T15:21:34.368Z,0.10
2023-02-26T15:26:47.859Z,0.20
2023-02-26T15:31:57.238Z,0.20
2023-02-26T15:37:02.637Z,0.30
2023-02-26T15:42:06.842Z,0.30
2023-02-26T15:47:12.487Z,0.43
2023-02-26T15:52:20.655Z,0.30
2023-02-26T15:57:27.104Z,0.20
2023-02-26T16:02:33.845Z,0.07
2023-02-26T16:07:38.075Z,0.17
2023-02-26T16:12:49.270Z,0.20
2023-02-26T16:17:56.869Z,0.13
2023-02-26T16:23:05.630Z,0.93
2023-02-26T16:28:17.870Z,1.00
2023-02-26T16:33:26.136Z,1.55
2023-02-26T16:38:46.067Z,2.92
2023-02-26T16:43:56.804Z,8.63
2023-02-26T16:49:05.931Z,7.20
2023-02-26T16:54:17.149Z,1.10
2023-02-26T16:59:24.025Z,0.40
2023-02-26T17:04:33.198Z,0.28
2023-02-26T17:09:40.137Z,0.70
2023-02-26T17:15:14.566Z,0.85
2023-02-26T17:20:20.393Z,0.30
2023-02-26T17:25:25.440Z,0.75
2023-02-26T17:30:32.096Z,0.60
2023-02-26T17:35:37.789Z,0.93
2023-02-26T17:40:44.195Z,0.40
2023-02-26T17:45:48.303Z,0.73
2023-02-26T17:50:56.525Z,0.70
2023-02-26T17:56:01.111Z,0.90
2023-02-26T18:01:06.228Z,1.02
2023-02-26T18:06:15.693Z,2.40
2023-02-26T18:11:24.008Z,1.30
2023-02-26T18:16:33.311Z,0.68
2023-02-26T18:21:38.863Z,1.02
2023-02-26T18:26:43.569Z,0.65
2023-02-26T18:31:47.665Z,0.80
2023-02-26T18:36:53.730Z,0.60
2023-02-26T18:41:57.899Z,0.50
2023-02-26T18:47:01.963Z,0.68
2023-02-26T18:52:07.825Z,1.00
2023-02-26T18:57:12.150Z,0.60
2023-02-26T19:02:16.298Z,0.50
2023-02-26T19:07:22.166Z,1.00
2023-02-26T19:12:26.924Z,0.50
2023-02-26T19:17:31.059Z,0.70
2023-02-26T19:22:36.715Z,0.50
2023-02-26T19:27:41.024Z,0.70
2023-02-26T19:32:45.185Z,1.15
2023-02-26T19:37:51.042Z,0.70
2023-02-26T19:42:55.997Z,0.60
2023-02-26T19:48:00.272Z,1.00
2023-02-26T19:53:05.989Z,0.93
2023-02-26T19:58:10.753Z,0.57
2023-02-26T20:03:15.368Z,0.73
2023-02-26T20:08:21.701Z,0.70
2023-02-26T20:13:29.896Z,0.77
2023-02-26T20:18:35.336Z,0.73
2023-02-26T20:23:41.862Z,0.90
2023-02-26T20:28:46.144Z,0.60
2023-02-26T20:33:50.291Z,1.10
2023-02-26T20:38:56.114Z,1.48
2023-02-26T20:44:00.374Z,0.70
2023-02-26T20:49:04.683Z,0.68
2023-02-26T20:54:12.975Z,0.85
2023-02-26T20:59:17.994Z,0.63
2023-02-26T21:04:22.600Z,1.00
2023-02-26T21:09:28.600Z,1.00
2023-02-26T21:14:32.929Z,1.20
2023-02-26T21:19:37.132Z,0.88
2023-02-26T21:24:43.371Z,0.77
2023-02-26T21:29:47.667Z,1.00
2023-02-26T21:34:52.033Z,1.50
2023-02-26T21:39:58.130Z,0.80
2023-02-26T21:45:02.834Z,0.80
2023-02-26T21:50:08.219Z,0.88
2023-02-26T21:55:14.125Z,0.60
2023-02-26T22:00:20.660Z,0.55
2023-02-26T22:05:24.860Z,0.68
2023-02-26T22:10:30.336Z,0.98
2023-02-26T22:15:34.665Z,0.77
2023-02-26T22:20:38.810Z,0.63
2023-02-26T22:25:44.393Z,0.52
2023-02-26T22:30:48.476Z,0.63
2023-02-26T22:35:53.279Z,0.65
2023-02-26T22:40:58.933Z,0.75
2023-02-26T22:46:03.226Z,0.50
2023-02-26T22:51:07.448Z,0.75
2023-02-26T22:56:12.915Z,0.85
2023-02-26T23:01:16.947Z,0.57
2023-02-26T23:06:21.017Z,0.93
2023-02-26T23:11:26.659Z,0.60
2023-02-26T23:16:31.357Z,0.85
2023-02-26T23:21:36.436Z,0.52
2023-02-26T23:26:41.850Z,0.47
2023-02-26T23:31:46.235Z,0.70
2023-02-26T23:36:50.333Z,0.40
2023-02-26T23:41:55.960Z,0.45
2023-02-26T23:47:00.016Z,0.63
2023-02-26T23:52:04.129Z,0.43
2023-02-26T23:57:09.522Z,0.70
